Time;durP1;ratioP1;P1;durP2;ratioP2;P2;SDS_P1;SDS_P2;PMS_P1;PMS_P2;Temp;Humidity;BMP_temperature;BMP_pressure;BME280_temperature;BME280_humidity;BME280_pressure;Samples;Min_cycle;Max_cycle;Signal;HPM_P1;HPM_P2
2022/01/01 00:00:34;;;;;;;71.30;28.35;;;11.60;99.90;;;;;;5092530;28;20051;-85
2022/01/01 00:03:00;;;;;;;68.65;28.30;;;11.60;99.90;;;;;;5092996;28;20424;-84
2022/01/01 00:05:26;;;;;;;64.55;25.77;;;11.60;99.90;;;;;;5092728;28;20184;-84
2022/01/01 00:07:52;;;;;;;57.45;25.70;;;11.60;99.90;;;;;;5093299;28;20138;-85
2022/01/01 00:10:19;;;;;;;63.28;25.45;;;11.60;99.90;;;;;;5093489;28;20059;-84
2022/01/01 00:12:46;;;;;;;58.97;25.05;;;11.60;99.90;;;;;;5110239;28;20092;-85
2022/01/01 00:15:12;;;;;;;62.47;26.23;;;11.60;99.90;;;;;;5093417;28;20123;-84
2022/01/01 00:17:38;;;;;;;61.47;25.42;;;11.60;99.90;;;;;;5108879;28;20637;-86
2022/01/01 00:20:04;;;;;;;57.60;25.27;;;11.60;99.90;;;;;;5075530;28;20487;-86
2022/01/01 00:22:30;;;;;;;70.43;26.33;;;11.60;99.90;;;;;;5108189;28;21314;-85
2022/01/01 00:24:55;;;;;;;63.20;25.20;;;11.60;99.90;;;;;;5091991;28;20051;-85
2022/01/01 00:27:21;;;;;;;63.22;26.27;;;11.60;99.90;;;;;;5094733;28;20057;-85
2022/01/01 00:29:47;;;;;;;63.08;25.38;;;11.60;99.90;;;;;;5111349;28;20091;-85
2022/01/01 00:32:12;;;;;;;66.30;25.50;;;11.60;99.90;;;;;;5111386;28;20126;-85
2022/01/01 00:34:38;;;;;;;62.90;25.52;;;11.60;99.90;;;;;;5094152;28;20097;-86
2022/01/01 00:37:04;;;;;;;68.63;26.83;;;11.60;99.90;;;;;;5094099;28;20050;-86
2022/01/01 00:39:30;;;;;;;61.75;25.67;;;11.60;99.90;;;;;;5077367;28;20108;-85
2022/01/01 00:41:56;;;;;;;74.50;27.40;;;11.60;99.90;;;;;;5094145;28;20384;-86
2022/01/01 00:44:21;;;;;;;71.53;30.60;;;11.60;99.90;;;;;;5094428;28;20138;-85
2022/01/01 00:46:47;;;;;;;64.72;27.20;;;11.50;99.90;;;;;;5094205;28;20058;-85
2022/01/01 00:49:13;;;;;;;65.72;27.15;;;11.60;99.90;;;;;;5078003;28;20111;-86
2022/01/01 00:51:38;;;;;;;67.85;29.52;;;11.50;99.90;;;;;;5093999;28;20058;-86
2022/01/01 00:54:05;;;;;;;78.50;30.15;;;11.20;99.90;;;;;;5112421;28;20055;-85
2022/01/01 00:56:30;;;;;;;68.65;30.38;;;11.50;99.90;;;;;;5094547;28;20449;-86
2022/01/01 00:58:56;;;;;;;80.25;30.85;;;11.50;99.90;;;;;;5111685;28;20130;-86
2022/01/01 01:01:22;;;;;;;78.60;31.95;;;11.40;99.90;;;;;;5111576;28;20081;-85
2022/01/01 01:03:47;;;;;;;77.05;27.77;;;11.50;99.90;;;;;;5110692;28;20055;-86
2022/01/01 01:06:14;;;;;;;74.47;29.00;;;11.50;99.90;;;;;;5111086;28;20081;-86
2022/01/01 01:08:40;;;;;;;56.95;26.65;;;11.50;99.90;;;;;;5111520;28;20108;-86
2022/01/01 01:11:08;;;;;;;74.45;31.45;;;11.40;99.90;;;;;;5094354;28;20476;-86
2022/01/01 01:13:35;;;;;;;73.75;34.38;;;11.40;99.90;;;;;;5111511;28;20600;-86
2022/01/01 01:16:00;;;;;;;88.90;35.15;;;11.30;99.90;;;;;;5094133;28;20126;-86
2022/01/01 01:18:26;;;;;;;95.13;38.47;;;11.30;99.90;;;;;;5094103;28;20118;-86
2022/01/01 01:20:52;;;;;;;96.30;40.75;;;11.20;99.90;;;;;;5060902;28;20048;-86
2022/01/01 01:23:18;;;;;;;90.55;40.95;;;11.20;99.90;;;;;;5094754;28;20054;-86
2022/01/01 01:25:44;;;;;;;94.88;42.22;;;11.20;99.90;;;;;;5095659;28;20107;-87
2022/01/01 01:28:10;;;;;;;103.57;41.38;;;11.20;99.90;;;;;;5111720;28;20107;-86
2022/01/01 01:30:37;;;;;;;93.93;39.90;;;11.30;99.90;;;;;;5076580;28;20064;-87
2022/01/01 01:33:04;;;;;;;90.25;40.33;;;11.30;99.90;;;;;;5094601;28;20074;-87
2022/01/01 01:35:31;;;;;;;93.43;40.58;;;11.30;99.90;;;;;;5110540;28;20043;-85
2022/01/01 01:37:56;;;;;;;93.55;37.00;;;11.30;99.90;;;;;;5077498;28;20052;-86
2022/01/01 01:40:22;;;;;;;97.10;36.90;;;11.30;99.90;;;;;;5094301;28;20047;-85
2022/01/01 01:42:48;;;;;;;88.63;34.90;;;11.30;99.90;;;;;;5077069;28;20054;-85
2022/01/01 01:45:18;;;;;;;87.97;34.95;;;11.30;99.90;;;;;;5077025;28;20040;-85
2022/01/01 01:47:46;;;;;;;85.82;32.75;;;11.30;99.90;;;;;;5108893;28;20051;-85
2022/01/01 01:50:12;;;;;;;74.10;28.55;;;11.40;99.90;;;;;;5077004;28;20399;-87
2022/01/01 01:52:39;;;;;;;83.20;32.22;;;11.30;99.90;;;;;;5076520;28;20062;-85
2022/01/01 01:55:09;;;;;;;83.05;30.48;;;11.40;99.90;;;;;;5110306;28;20497;-85
2022/01/01 01:57:35;;;;;;;87.63;30.23;;;11.30;99.90;;;;;;5076554;28;20043;-83
2022/01/01 02:00:01;;;;;;;79.88;32.45;;;11.30;99.90;;;;;;5110321;28;20399;-86
2022/01/01 02:02:26;;;;;;;75.22;32.67;;;11.40;99.90;;;;;;5076903;28;20054;-86
2022/01/01 02:04:52;;;;;;;88.88;33.33;;;11.40;99.90;;;;;;5111571;28;20058;-86
2022/01/01 02:07:18;;;;;;;88.30;35.08;;;11.40;99.90;;;;;;5110707;28;20047;-86
2022/01/01 02:09:44;;;;;;;83.75;33.90;;;11.40;99.90;;;;;;5093069;28;20048;-85
2022/01/01 02:12:09;;;;;;;76.30;30.95;;;11.40;99.90;;;;;;5111400;28;20850;-86
2022/01/01 02:15:06;;;;;;;87.90;35.45;;;11.50;99.90;;;;;;5093026;28;20391;-85
2022/01/01 02:17:31;;;;;;;90.10;37.25;;;11.50;99.90;;;;;;5096409;28;20105;-86
2022/01/01 02:20:02;;;;;;;83.07;36.95;;;11.50;99.90;;;;;;5109424;28;20043;-86
2022/01/01 02:22:37;;;;;;;90.60;40.47;;;11.40;99.90;;;;;;5110146;28;20488;-86
2022/01/01 02:25:03;;;;;;;98.45;38.80;;;11.40;99.90;;;;;;5076461;28;20054;-86
2022/01/01 02:27:29;;;;;;;108.07;42.47;;;11.50;99.90;;;;;;5093510;28;20055;-86
2022/01/01 02:29:54;;;;;;;105.40;46.92;;;11.40;99.90;;;;;;5092488;28;20495;-86
2022/01/01 02:32:20;;;;;;;103.38;47.78;;;11.40;99.90;;;;;;5110303;28;20043;-87
2022/01/01 02:34:46;;;;;;;105.15;47.00;;;11.40;99.90;;;;;;5109476;28;20497;-87
2022/01/01 02:37:11;;;;;;;111.43;49.88;;;11.40;99.90;;;;;;5092799;28;20040;-86
2022/01/01 02:39:37;;;;;;;108.15;52.00;;;11.40;99.90;;;;;;5092858;28;20079;-86
2022/01/01 02:42:05;;;;;;;116.05;54.20;;;11.40;99.90;;;;;;5075943;28;20097;-86
2022/01/01 02:44:31;;;;;;;108.72;52.80;;;11.40;99.90;;;;;;5093262;28;20549;-85
2022/01/01 02:46:57;;;;;;;118.80;52.88;;;11.30;99.90;;;;;;5091905;28;20055;-86
2022/01/01 02:49:23;;;;;;;118.57;55.70;;;11.30;99.90;;;;;;5093205;28;20059;-85
2022/01/01 02:51:48;;;;;;;114.65;54.70;;;11.30;99.90;;;;;;5092382;28;20576;-86
2022/01/01 02:54:14;;;;;;;111.90;56.42;;;11.30;99.90;;;;;;5092913;28;20138;-85
2022/01/01 02:56:42;;;;;;;122.57;57.05;;;11.30;99.90;;;;;;5092795;28;20476;-84
2022/01/01 02:59:08;;;;;;;110.80;55.05;;;11.30;99.90;;;;;;5094577;28;20047;-86
2022/01/01 03:01:34;;;;;;;109.90;53.55;;;11.30;99.90;;;;;;5079769;28;20046;-85
2022/01/01 03:03:59;;;;;;;118.32;56.70;;;11.30;99.90;;;;;;5112942;28;20079;-85
2022/01/01 03:06:27;;;;;;;110.43;53.50;;;11.30;99.90;;;;;;5063080;28;20043;-86
2022/01/01 03:08:54;;;;;;;119.85;56.90;;;11.30;99.90;;;;;;5096167;28;20387;-86
2022/01/01 03:11:20;;;;;;;130.88;58.45;;;11.30;99.90;;;;;;5113506;28;20463;-86
2022/01/01 03:13:46;;;;;;;112.25;57.08;;;11.30;99.90;;;;;;5078892;28;20088;-86
2022/01/01 03:16:12;;;;;;;134.45;60.90;;;11.30;99.90;;;;;;5095968;28;20128;-85
2022/01/01 03:18:38;;;;;;;115.68;57.55;;;11.20;99.90;;;;;;5079451;28;20121;-86
2022/01/01 03:21:04;;;;;;;119.05;58.28;;;11.20;99.90;;;;;;5095784;28;20735;-86
2022/01/01 03:23:29;;;;;;;119.45;56.30;;;11.20;99.90;;;;;;5096374;28;20530;-85
2022/01/01 03:25:55;;;;;;;125.20;55.92;;;11.30;99.90;;;;;;5095577;28;20071;-86
2022/01/01 03:28:21;;;;;;;116.10;54.03;;;11.30;99.90;;;;;;5113052;28;20467;-85
2022/01/01 03:30:46;;;;;;;113.07;56.10;;;11.30;99.90;;;;;;5078907;28;20555;-85
2022/01/01 03:33:12;;;;;;;112.28;52.88;;;11.30;99.90;;;;;;5096074;28;20051;-86
2022/01/01 03:35:38;;;;;;;118.78;54.72;;;11.30;99.90;;;;;;5078909;28;20082;-86
2022/01/01 03:38:03;;;;;;;111.93;53.33;;;11.30;99.90;;;;;;5111943;28;20044;-86
2022/01/01 03:40:29;;;;;;;100.28;49.45;;;11.30;99.90;;;;;;5095800;28;20050;-86
2022/01/01 03:42:55;;;;;;;109.22;52.85;;;11.40;99.90;;;;;;5111642;28;20055;-85
2022/01/01 03:45:20;;;;;;;107.20;51.58;;;11.40;99.90;;;;;;5112712;28;20471;-86
2022/01/01 03:47:46;;;;;;;112.03;54.67;;;11.40;99.90;;;;;;5078416;28;20500;-86
2022/01/01 03:50:12;;;;;;;115.30;55.78;;;11.30;99.90;;;;;;5078309;28;20399;-86
2022/01/01 03:52:46;;;;;;;109.45;55.67;;;11.50;99.90;;;;;;5095610;28;20055;-86
2022/01/01 03:55:12;;;;;;;124.80;57.50;;;11.40;99.90;;;;;;5094987;28;20494;-87
2022/01/01 03:57:38;;;;;;;108.63;55.67;;;11.30;99.90;;;;;;5095239;28;20047;-87
2022/01/01 04:00:11;;;;;;;118.97;56.33;;;11.30;99.90;;;;;;5094711;28;20044;-84
2022/01/01 04:02:36;;;;;;;122.35;57.92;;;11.30;99.90;;;;;;5112310;28;20142;-85
2022/01/01 04:05:03;;;;;;;119.28;57.97;;;11.30;99.90;;;;;;5094367;28;20210;-86
2022/01/01 04:07:32;;;;;;;115.97;55.72;;;11.40;99.90;;;;;;5112083;28;20109;-85
2022/01/01 04:09:58;;;;;;;127.70;60.90;;;11.30;99.90;;;;;;5094428;28;20067;-85
2022/01/01 04:12:25;;;;;;;123.32;60.03;;;11.30;99.90;;;;;;5094815;28;20051;-86
2022/01/01 04:14:51;;;;;;;124.57;60.83;;;11.30;99.90;;;;;;5077951;28;20044;-85
2022/01/01 04:17:16;;;;;;;136.63;65.13;;;11.30;99.90;;;;;;5111366;28;20050;-84
2022/01/01 04:19:42;;;;;;;124.60;62.08;;;11.30;99.90;;;;;;5094939;28;20063;-85
2022/01/01 04:22:08;;;;;;;129.07;66.07;;;11.40;99.90;;;;;;5112281;28;20411;-85
2022/01/01 04:24:34;;;;;;;132.77;63.35;;;11.40;99.90;;;;;;5077995;28;20458;-86
2022/01/01 04:27:00;;;;;;;122.68;62.53;;;11.40;99.90;;;;;;5110997;28;20083;-86
2022/01/01 04:29:26;;;;;;;137.88;68.95;;;11.50;99.90;;;;;;5094423;28;20043;-85
2022/01/01 04:31:52;;;;;;;143.15;66.43;;;11.30;99.90;;;;;;5112588;27;20472;-86
2022/01/01 04:34:18;;;;;;;141.00;69.72;;;11.30;99.90;;;;;;5093732;28;20138;-86
2022/01/01 04:36:50;;;;;;;143.25;70.28;;;11.40;99.90;;;;;;5111388;28;20043;-85
2022/01/01 04:39:16;;;;;;;130.15;67.78;;;11.40;99.90;;;;;;5111140;28;20047;-85
2022/01/01 04:41:41;;;;;;;138.75;72.90;;;11.40;99.90;;;;;;5111404;28;20054;-85
2022/01/01 04:44:08;;;;;;;137.38;73.45;;;11.40;99.90;;;;;;5060563;28;20051;-86
2022/01/01 04:46:34;;;;;;;136.10;75.20;;;11.30;99.90;;;;;;5094221;28;20055;-87
2022/01/01 04:49:00;;;;;;;144.57;72.25;;;11.30;99.90;;;;;;5093775;28;20058;-86
2022/01/01 04:51:26;;;;;;;152.82;77.57;;;11.30;99.90;;;;;;5077983;28;20055;-87
2022/01/01 04:53:58;;;;;;;147.82;75.45;;;11.30;99.90;;;;;;5094432;28;20069;-86
2022/01/01 04:56:24;;;;;;;147.27;74.95;;;11.30;99.90;;;;;;5094226;28;20529;-86
2022/01/01 04:58:50;;;;;;;139.38;71.88;;;11.30;99.90;;;;;;5077586;28;20111;-85
2022/01/01 05:01:15;;;;;;;146.90;76.22;;;11.30;99.90;;;;;;5076940;28;20059;-85
2022/01/01 05:03:41;;;;;;;151.13;74.72;;;11.20;99.90;;;;;;5104273;28;20047;-85
2022/01/01 05:06:07;;;;;;;149.38;75.47;;;11.30;99.90;;;;;;5113752;28;20498;-86
2022/01/01 05:08:32;;;;;;;133.65;70.60;;;11.20;99.90;;;;;;5093932;28;20525;-86
2022/01/01 05:10:58;;;;;;;147.93;75.00;;;11.30;99.90;;;;;;5111383;28;20047;-86
2022/01/01 05:13:24;;;;;;;135.38;71.00;;;11.30;99.90;;;;;;5095287;28;20047;-88
2022/01/01 05:15:51;;;;;;;152.15;76.15;;;11.30;99.90;;;;;;5111982;28;20518;-86
2022/01/01 05:18:16;;;;;;;149.82;76.78;;;11.30;99.90;;;;;;5093116;28;20055;-85
2022/01/01 05:20:42;;;;;;;140.15;71.40;;;11.40;99.90;;;;;;5111030;28;20380;-85
2022/01/01 05:23:08;;;;;;;145.57;72.13;;;11.40;99.90;;;;;;5109227;28;20447;-86
2022/01/01 05:25:33;;;;;;;144.45;71.53;;;11.30;99.90;;;;;;5060349;28;20134;-87
2022/01/01 05:27:59;;;;;;;151.25;75.75;;;11.40;99.90;;;;;;5093952;28;20507;-87
2022/01/01 05:30:25;;;;;;;158.05;76.43;;;11.40;99.90;;;;;;5111362;28;20055;-88
2022/01/01 05:32:51;;;;;;;149.32;72.43;;;11.30;99.90;;;;;;5111212;28;20433;-88
2022/01/01 05:35:16;;;;;;;144.57;73.53;;;11.40;99.90;;;;;;5094039;28;20051;-88
2022/01/01 05:37:42;;;;;;;155.55;73.30;;;11.40;99.90;;;;;;5110806;28;20050;-87
2022/01/01 05:40:08;;;;;;;147.90;72.22;;;11.40;99.90;;;;;;5110506;28;20106;-87
2022/01/01 05:42:34;;;;;;;156.25;72.75;;;11.50;99.90;;;;;;5110733;28;20059;-87
2022/01/01 05:44:59;;;;;;;151.02;72.47;;;11.40;99.90;;;;;;5093671;28;20048;-87
2022/01/01 05:47:25;;;;;;;146.27;70.55;;;11.40;99.90;;;;;;5109619;28;20051;-87
2022/01/01 05:49:51;;;;;;;143.02;68.40;;;11.50;99.90;;;;;;5094102;28;20116;-86
2022/01/01 05:52:16;;;;;;;144.95;67.28;;;11.50;99.90;;;;;;5110877;28;20378;-88
2022/01/01 05:54:42;;;;;;;144.98;66.50;;;11.50;99.90;;;;;;5093553;28;20051;-87
2022/01/01 05:57:08;;;;;;;121.35;56.83;;;11.40;99.90;;;;;;5110337;28;20044;-87
2022/01/01 05:59:33;;;;;;;131.13;59.22;;;11.50;99.90;;;;;;5115934;28;20039;-86
2022/01/01 06:01:59;;;;;;;124.30;58.53;;;11.50;99.90;;;;;;5128507;28;20048;-87
2022/01/01 06:04:25;;;;;;;125.07;56.05;;;11.50;99.90;;;;;;5076664;28;20047;-87
2022/01/01 06:06:50;;;;;;;110.85;52.00;;;11.50;99.90;;;;;;5110602;28;20078;-87
2022/01/01 06:09:16;;;;;;;133.05;56.40;;;11.60;99.90;;;;;;5111509;28;20070;-88
2022/01/01 06:11:41;;;;;;;124.82;57.10;;;11.50;99.90;;;;;;5111950;28;20475;-87
2022/01/01 06:14:07;;;;;;;127.07;54.35;;;11.40;99.90;;;;;;5111566;28;20567;-87
2022/01/01 06:16:33;;;;;;;120.28;53.58;;;11.40;99.90;;;;;;5110792;28;20488;-88
2022/01/01 06:18:58;;;;;;;130.15;52.70;;;11.40;99.90;;;;;;5110577;28;20089;-87
2022/01/01 06:21:24;;;;;;;127.85;49.88;;;11.40;99.90;;;;;;5110344;28;20059;-87
2022/01/01 06:23:50;;;;;;;125.65;50.10;;;11.40;99.90;;;;;;5093684;28;20096;-88
2022/01/01 06:26:15;;;;;;;111.85;44.55;;;11.40;99.90;;;;;;5109299;28;20543;-88
2022/01/01 06:28:41;;;;;;;119.15;46.03;;;11.40;99.90;;;;;;5076823;28;20491;-86
2022/01/01 06:31:07;;;;;;;123.90;48.42;;;11.40;99.90;;;;;;5094022;28;20062;-86
2022/01/01 06:33:33;;;;;;;139.80;47.70;;;11.30;99.90;;;;;;5110600;28;20044;-87
2022/01/01 06:35:58;;;;;;;127.38;46.40;;;11.40;99.90;;;;;;5097227;28;20470;-88
2022/01/01 06:38:24;;;;;;;135.82;48.90;;;11.30;99.90;;;;;;5113225;28;20067;-87
2022/01/01 06:40:50;;;;;;;132.48;47.45;;;11.30;99.90;;;;;;5113992;28;20050;-87
2022/01/01 06:43:16;;;;;;;130.70;46.97;;;11.40;99.90;;;;;;5113222;28;20134;-87
2022/01/01 06:45:43;;;;;;;127.75;44.53;;;11.30;99.90;;;;;;5113723;28;20127;-87
2022/01/01 06:48:08;;;;;;;132.73;43.17;;;11.40;99.90;;;;;;5079607;28;20059;-86
2022/01/01 06:50:36;;;;;;;125.97;42.45;;;11.30;99.90;;;;;;5096202;28;20494;-87
2022/01/01 06:53:02;;;;;;;141.57;45.40;;;11.40;99.90;;;;;;5080419;28;20492;-87
2022/01/01 06:55:28;;;;;;;127.82;41.80;;;11.40;99.90;;;;;;5113103;28;20106;-87
2022/01/01 06:57:54;;;;;;;121.68;41.08;;;11.40;99.90;;;;;;5096384;28;20207;-87
2022/01/01 07:00:19;;;;;;;123.03;40.42;;;11.40;99.90;;;;;;5079463;28;20134;-87
2022/01/01 07:02:46;;;;;;;118.05;40.97;;;11.40;99.90;;;;;;5113600;28;20051;-87
2022/01/01 07:05:12;;;;;;;123.28;40.92;;;11.40;99.90;;;;;;5096355;28;20518;-87
2022/01/01 07:07:37;;;;;;;106.05;38.33;;;11.40;99.90;;;;;;5078660;28;20039;-87
2022/01/01 07:10:04;;;;;;;103.68;37.17;;;11.40;99.90;;;;;;5096457;28;20051;-87
2022/01/01 07:12:30;;;;;;;113.75;36.95;;;11.40;99.90;;;;;;5095965;28;20112;-87
2022/01/01 07:14:56;;;;;;;106.30;37.30;;;11.40;99.90;;;;;;5113376;28;20220;-86
2022/01/01 07:17:21;;;;;;;103.72;35.58;;;11.50;99.90;;;;;;5112654;28;20043;-87
2022/01/01 07:19:47;;;;;;;111.43;37.85;;;11.50;99.90;;;;;;5113734;28;20148;-86
2022/01/01 07:22:13;;;;;;;104.30;35.13;;;11.40;99.90;;;;;;5096921;28;20059;-87
2022/01/01 07:24:39;;;;;;;110.75;36.70;;;11.50;99.90;;;;;;5112874;28;20066;-87
2022/01/01 07:27:05;;;;;;;109.43;35.60;;;11.50;99.90;;;;;;5096531;28;20471;-87
2022/01/01 07:29:31;;;;;;;100.50;33.45;;;11.60;99.90;;;;;;5113577;28;20051;-88
2022/01/01 07:31:56;;;;;;;113.57;36.60;;;11.60;99.90;;;;;;5096671;28;20044;-86
2022/01/01 07:34:22;;;;;;;107.75;34.42;;;11.60;99.90;;;;;;5112811;28;20056;-88
2022/01/01 07:36:48;;;;;;;94.90;35.00;;;11.70;99.90;;;;;;5096626;28;20065;-88
2022/01/01 07:39:14;;;;;;;112.97;36.08;;;11.70;99.90;;;;;;5096988;28;20051;-87
2022/01/01 07:41:40;;;;;;;99.70;37.75;;;11.70;99.90;;;;;;5096842;28;20479;-87
2022/01/01 07:44:06;;;;;;;109.63;37.42;;;11.70;99.90;;;;;;5097191;28;20082;-87
2022/01/01 07:46:32;;;;;;;120.70;39.20;;;11.70;99.90;;;;;;5094882;28;20079;-87
2022/01/01 07:48:58;;;;;;;100.00;37.40;;;11.70;99.90;;;;;;5113725;28;20039;-87
2022/01/01 07:51:23;;;;;;;99.95;37.85;;;11.80;99.90;;;;;;5095902;28;20478;-87
2022/01/01 07:53:49;;;;;;;101.57;36.83;;;11.70;99.90;;;;;;5112921;28;20044;-87
2022/01/01 07:56:15;;;;;;;103.43;37.33;;;11.70;99.90;;;;;;5096044;28;20039;-87
2022/01/01 07:58:40;;;;;;;96.45;35.95;;;11.70;99.90;;;;;;5079337;28;20052;-88
2022/01/01 08:01:07;;;;;;;86.40;33.78;;;11.70;99.90;;;;;;5113787;28;20160;-88
2022/01/01 08:03:33;;;;;;;88.32;34.80;;;11.80;99.90;;;;;;5112837;28;20035;-87
2022/01/01 08:05:59;;;;;;;80.13;34.20;;;11.80;99.90;;;;;;5113371;28;20050;-87
2022/01/01 08:08:24;;;;;;;96.80;34.28;;;11.80;99.90;;;;;;5095867;28;20055;-88
2022/01/01 08:10:50;;;;;;;83.50;33.00;;;11.80;99.90;;;;;;5112408;28;20124;-88
2022/01/01 08:13:25;;;;;;;85.28;34.13;;;11.90;99.90;;;;;;5113417;28;20092;-87
2022/01/01 08:15:51;;;;;;;82.03;31.70;;;11.90;99.90;;;;;;5113083;28;20087;-87
2022/01/01 08:18:17;;;;;;;82.50;32.42;;;12.00;99.90;;;;;;5095320;28;20054;-86
2022/01/01 08:20:43;;;;;;;75.40;30.98;;;12.10;99.90;;;;;;5094629;28;20051;-87
2022/01/01 08:23:08;;;;;;;69.78;32.78;;;12.10;99.90;;;;;;5095498;28;20039;-87
2022/01/01 08:25:34;;;;;;;74.80;32.55;;;12.10;99.90;;;;;;5094742;28;20044;-87
2022/01/01 08:28:00;;;;;;;73.95;31.73;;;12.10;99.90;;;;;;5078227;28;20047;-87
2022/01/01 08:30:26;;;;;;;78.85;33.08;;;12.10;99.90;;;;;;5111957;28;20046;-87
2022/01/01 08:32:51;;;;;;;75.80;32.60;;;12.10;99.90;;;;;;5113573;28;20050;-86
2022/01/01 08:35:17;;;;;;;76.43;33.00;;;12.10;99.90;;;;;;5124384;28;20520;-86
2022/01/01 08:37:43;;;;;;;79.18;33.47;;;12.20;99.90;;;;;;5120945;28;20380;-88
2022/01/01 08:40:09;;;;;;;83.63;34.42;;;12.10;99.90;;;;;;5096687;28;20088;-87
2022/01/01 08:42:34;;;;;;;90.20;36.33;;;12.10;99.90;;;;;;5079804;28;20051;-88
2022/01/01 08:45:00;;;;;;;92.32;37.55;;;12.10;99.90;;;;;;5098347;28;20054;-87
2022/01/01 08:47:26;;;;;;;76.50;34.05;;;12.20;99.90;;;;;;5112667;28;20058;-88
2022/01/01 08:49:55;;;;;;;93.57;38.85;;;12.20;99.90;;;;;;5111803;28;20386;-87
2022/01/01 08:52:24;;;;;;;89.13;36.75;;;12.00;99.90;;;;;;5094648;28;20058;-87
2022/01/01 08:54:55;;;;;;;98.13;38.28;;;12.10;99.90;;;;;;5094012;28;20032;-87
2022/01/01 08:57:21;;;;;;;88.78;36.75;;;12.10;99.90;;;;;;5095566;28;20077;-88
2022/01/01 08:59:46;;;;;;;90.93;37.45;;;12.10;99.90;;;;;;5093851;28;20055;-87
2022/01/01 09:02:12;;;;;;;89.15;37.45;;;12.10;99.90;;;;;;5111448;28;20357;-87
2022/01/01 09:04:38;;;;;;;101.22;41.13;;;12.20;99.90;;;;;;5076721;28;20082;-88
2022/01/01 09:07:03;;;;;;;97.22;39.72;;;12.10;99.90;;;;;;5077371;28;20378;-88
2022/01/01 09:09:29;;;;;;;97.15;38.95;;;12.20;99.90;;;;;;5077271;28;20055;-86
2022/01/01 09:11:55;;;;;;;83.30;38.15;;;12.20;99.90;;;;;;5094574;28;20079;-87
2022/01/01 09:14:21;;;;;;;91.32;38.35;;;12.20;99.90;;;;;;5112799;28;20051;-86
2022/01/01 09:16:46;;;;;;;89.47;39.97;;;12.20;99.90;;;;;;5110921;28;20429;-87
2022/01/01 09:19:13;;;;;;;91.13;39.03;;;12.30;99.90;;;;;;5111669;28;20498;-87
2022/01/01 09:21:38;;;;;;;86.07;38.60;;;12.30;99.90;;;;;;5077149;28;20145;-87
2022/01/01 09:24:04;;;;;;;83.70;38.40;;;12.40;99.90;;;;;;5094522;28;20080;-87
2022/01/01 09:26:30;;;;;;;82.60;38.03;;;12.40;99.90;;;;;;5094131;28;20039;-87
2022/01/01 09:28:56;;;;;;;81.50;38.50;;;12.40;99.90;;;;;;5075995;28;20047;-87
2022/01/01 09:31:22;;;;;;;83.68;39.08;;;12.40;99.90;;;;;;5093746;28;20408;-86
2022/01/01 09:33:47;;;;;;;70.78;35.42;;;12.40;99.90;;;;;;5110916;28;20087;-88
2022/01/01 09:36:17;;;;;;;69.30;34.97;;;12.60;99.90;;;;;;5111359;28;20421;-88
2022/01/01 09:38:43;;;;;;;70.95;36.38;;;12.50;99.90;;;;;;5094394;28;20055;-87
2022/01/01 09:41:09;;;;;;;74.47;36.08;;;12.60;99.90;;;;;;5094104;28;20059;-88
2022/01/01 09:43:35;;;;;;;69.65;35.55;;;12.60;99.90;;;;;;5077059;28;20491;-87
2022/01/01 09:46:01;;;;;;;70.75;34.17;;;12.60;99.90;;;;;;5094159;28;20043;-88
2022/01/01 09:48:27;;;;;;;64.82;35.25;;;12.60;99.90;;;;;;5093640;28;20503;-89
2022/01/01 09:50:55;;;;;;;72.90;34.28;;;12.70;99.90;;;;;;5076627;28;20097;-89
2022/01/01 09:53:25;;;;;;;63.22;31.80;;;12.60;99.90;;;;;;5110736;28;20440;-86
2022/01/01 09:55:54;;;;;;;65.05;32.67;;;12.80;99.90;;;;;;5060092;28;20087;-87
2022/01/01 09:58:24;;;;;;;59.97;31.55;;;12.80;99.90;;;;;;5093811;28;20119;-86
2022/01/01 10:00:52;;;;;;;64.75;32.70;;;12.80;99.90;;;;;;5092898;28;20058;-86
2022/01/01 10:03:26;;;;;;;58.92;29.08;;;12.80;99.90;;;;;;5076231;28;20055;-86
2022/01/01 10:05:58;;;;;;;;;;;12.80;99.90;;;;;;5093406;28;20089;-87
2022/01/01 10:08:24;;;;;;;54.35;28.35;;;12.80;99.90;;;;;;5093474;28;19927;-87
2022/01/01 10:10:51;;;;;;;53.80;27.27;;;12.80;99.90;;;;;;5113937;28;20063;-86
2022/01/01 10:13:17;;;;;;;47.33;27.50;;;12.80;99.90;;;;;;5080767;28;20528;-89
2022/01/01 10:15:43;;;;;;;50.25;26.30;;;12.70;99.90;;;;;;5096732;28;20048;-87
2022/01/01 10:18:08;;;;;;;53.20;26.92;;;12.80;99.90;;;;;;5113973;28;20058;-88
2022/01/01 10:20:43;;;;;;;49.58;26.83;;;12.80;99.90;;;;;;5097415;28;20132;-88
2022/01/01 10:23:11;;;;;;;51.75;27.08;;;12.80;99.90;;;;;;5080824;28;20055;-87
2022/01/01 10:28:21;;;;;;;49.63;24.15;;;12.70;99.90;;;;;;5093762;28;20056;-88
2022/01/01 10:30:48;;;;;;;47.53;23.42;;;12.80;99.90;;;;;;5110150;28;20468;-86
2022/01/01 10:33:17;;;;;;;45.60;22.55;;;12.80;99.90;;;;;;5100327;28;20102;-89
2022/01/01 10:35:43;;;;;;;41.95;23.63;;;12.80;99.90;;;;;;5105240;28;20047;-89
2022/01/01 10:38:17;;;;;;;41.75;23.23;;;12.80;99.90;;;;;;5123267;28;20044;-88
2022/01/01 10:40:43;;;;;;;39.17;21.65;;;12.70;99.90;;;;;;5112317;28;20051;-89
2022/01/01 10:43:10;;;;;;;44.42;21.45;;;12.80;99.90;;;;;;5091305;27;20058;-90
2022/01/01 10:45:47;;;;;;;41.42;21.45;;;12.80;99.90;;;;;;5072400;28;20091;-88
2022/01/01 10:50:46;;;;;;;40.13;19.70;;;12.80;99.90;;;;;;5099081;28;20052;-89
2022/01/01 10:53:14;;;;;;;30.45;18.38;;;12.90;99.90;;;;;;5093578;28;20055;-89
2022/01/01 10:55:41;;;;;;;28.73;16.92;;;12.90;99.90;;;;;;5079770;28;20385;-87
2022/01/01 10:58:06;;;;;;;29.85;17.35;;;12.80;99.90;;;;;;5078302;28;20044;-86
2022/01/01 11:00:32;;;;;;;35.90;16.98;;;12.80;99.90;;;;;;5076289;28;20055;-87
2022/01/01 11:02:58;;;;;;;30.10;16.17;;;13.00;99.90;;;;;;5076939;28;20079;-89
2022/01/01 11:05:31;;;;;;;38.30;16.10;;;13.00;99.90;;;;;;5094199;28;20373;-88
2022/01/01 11:07:57;;;;;;;26.30;14.55;;;13.00;99.90;;;;;;5075544;28;20056;-87
2022/01/01 11:10:23;;;;;;;31.60;15.25;;;13.00;99.90;;;;;;5094221;28;20039;-89
2022/01/01 11:12:49;;;;;;;27.50;14.85;;;13.10;99.90;;;;;;5093543;28;20048;-86
2022/01/01 11:15:15;;;;;;;27.02;13.85;;;13.10;99.90;;;;;;5094084;28;20514;-87
2022/01/01 11:17:42;;;;;;;28.98;14.32;;;13.10;99.90;;;;;;5075862;28;20051;-89
2022/01/01 11:20:08;;;;;;;27.25;13.20;;;13.20;99.90;;;;;;5074959;28;20048;-88
2022/01/01 11:22:34;;;;;;;25.27;13.48;;;13.10;99.90;;;;;;5092699;28;20048;-88
2022/01/01 11:24:59;;;;;;;25.65;13.30;;;13.10;99.90;;;;;;5092291;28;20043;-89
2022/01/01 11:27:28;;;;;;;29.40;12.73;;;13.10;99.90;;;;;;5092555;28;20044;-85
2022/01/01 11:29:54;;;;;;;24.92;12.57;;;13.20;99.90;;;;;;5062083;28;20094;-88
2022/01/01 11:32:22;;;;;;;25.52;12.50;;;13.20;99.90;;;;;;5096164;28;20100;-89
2022/01/01 11:34:49;;;;;;;19.52;11.00;;;13.30;99.90;;;;;;5112996;28;20055;-88
2022/01/01 11:37:15;;;;;;;25.83;11.68;;;13.20;99.90;;;;;;5095233;28;20050;-87
2022/01/01 11:39:42;;;;;;;23.85;10.10;;;13.20;99.90;;;;;;5079224;28;20108;-87
2022/01/01 11:42:12;;;;;;;23.98;11.05;;;13.10;99.90;;;;;;5095021;28;20094;-89
2022/01/01 11:44:40;;;;;;;19.95;9.65;;;13.10;99.90;;;;;;5096266;28;20127;-89
2022/01/01 11:47:14;;;;;;;19.50;9.95;;;13.10;99.90;;;;;;5094634;28;20097;-89
2022/01/01 11:49:40;;;;;;;20.65;10.02;;;13.30;99.90;;;;;;5095541;28;20394;-88
2022/01/01 11:52:06;;;;;;;17.92;9.77;;;13.20;99.90;;;;;;5113139;28;20048;-90
2022/01/01 11:54:42;;;;;;;25.42;9.90;;;12.40;99.90;;;;;;5115416;28;20051;-88
2022/01/01 11:57:17;;;;;;;19.00;9.70;;;13.10;99.90;;;;;;5096933;28;20704;-86
2022/01/01 11:59:50;;;;;;;21.83;9.55;;;13.20;99.90;;;;;;5112552;28;20043;-90
2022/01/01 12:02:19;;;;;;;23.00;10.02;;;13.20;99.90;;;;;;5095086;28;20112;-90
2022/01/01 12:04:46;;;;;;;21.25;8.82;;;12.90;99.90;;;;;;5112712;28;20051;-91
2022/01/01 12:07:18;;;;;;;19.60;9.85;;;13.20;99.90;;;;;;5077958;28;20112;-89
2022/01/01 12:12:50;;;;;;;19.08;8.85;;;13.30;99.90;;;;;;5097142;28;20064;-88
2022/01/01 12:15:23;;;;;;;17.48;8.25;;;13.30;99.90;;;;;;5108581;28;20151;-87
2022/01/01 12:18:01;;;;;;;18.17;7.93;;;13.20;99.90;;;;;;5113008;28;20052;-85
2022/01/01 12:20:41;;;;;;;24.27;8.55;;;13.20;99.90;;;;;;5086251;28;20047;-85
2022/01/01 12:23:09;;;;;;;15.63;7.85;;;13.20;99.90;;;;;;5093664;28;20055;-86
2022/01/01 12:25:36;;;;;;;18.23;7.82;;;13.20;99.90;;;;;;5109610;28;20056;-87
2022/01/01 12:28:07;;;;;;;13.13;7.15;;;13.20;99.90;;;;;;5108459;28;20056;-86